sensor_id;sensor_type;location;lat;lon;timestamp;P1;durP1;ratioP1;P2;durP2;ratioP2
2944;SDS011;1482;51.398;7.128;2022-09-30T00:01:24;13.27;;;8.23;;
2944;SDS011;1482;51.398;7.128;2022-09-30T00:03:54;8.07;;;7.27;;
2944;SDS011;1482;51.398;7.128;2022-09-30T00:06:21;9.57;;;7.40;;
2944;SDS011;1482;51.398;7.128;2022-09-30T00:08:48;17.17;;;6.97;;
2944;SDS011;1482;51.398;7.128;2022-09-30T00:11:15;10.57;;;7.40;;
2944;SDS011;1482;51.398;7.128;2022-09-30T00:13:43;7.50;;;5.93;;
2944;SDS011;1482;51.398;7.128;2022-09-30T00:16:11;8.10;;;7.07;;
2944;SDS011;1482;51.398;7.128;2022-09-30T00:18:37;15.50;;;9.37;;
2944;SDS011;1482;51.398;7.128;2022-09-30T00:21:04;13.33;;;9.87;;
2944;SDS011;1482;51.398;7.128;2022-09-30T00:23:30;18.70;;;12.50;;
2944;SDS011;1482;51.398;7.128;2022-09-30T00:25:57;14.37;;;11.80;;
2944;SDS011;1482;51.398;7.128;2022-09-30T00:28:24;11.30;;;9.40;;
2944;SDS011;1482;51.398;7.128;2022-09-30T00:30:49;13.90;;;9.90;;
2944;SDS011;1482;51.398;7.128;2022-09-30T00:33:15;11.87;;;8.07;;
2944;SDS011;1482;51.398;7.128;2022-09-30T00:35:40;10.43;;;6.43;;
2944;SDS011;1482;51.398;7.128;2022-09-30T00:38:06;9.00;;;7.27;;
2944;SDS011;1482;51.398;7.128;2022-09-30T00:40:32;12.47;;;6.93;;
2944;SDS011;1482;51.398;7.128;2022-09-30T00:42:57;8.13;;;7.20;;
2944;SDS011;1482;51.398;7.128;2022-09-30T00:45:25;10.53;;;7.97;;
2944;SDS011;1482;51.398;7.128;2022-09-30T00:47:54;13.20;;;7.90;;
2944;SDS011;1482;51.398;7.128;2022-09-30T00:50:33;10.10;;;8.17;;
2944;SDS011;1482;51.398;7.128;2022-09-30T00:56:17;12.57;;;8.77;;
2944;SDS011;1482;51.398;7.128;2022-09-30T01:01:32;23.27;;;11.80;;
2944;SDS011;1482;51.398;7.128;2022-09-30T01:04:00;15.90;;;10.47;;
2944;SDS011;1482;51.398;7.128;2022-09-30T01:06:30;21.07;;;12.97;;
2944;SDS011;1482;51.398;7.128;2022-09-30T01:08:55;19.90;;;13.07;;
2944;SDS011;1482;51.398;7.128;2022-09-30T01:11:22;20.97;;;12.90;;
2944;SDS011;1482;51.398;7.128;2022-09-30T01:13:50;19.30;;;12.70;;
2944;SDS011;1482;51.398;7.128;2022-09-30T01:21:53;24.90;;;13.57;;
2944;SDS011;1482;51.398;7.128;2022-09-30T01:24:45;25.30;;;14.83;;
2944;SDS011;1482;51.398;7.128;2022-09-30T01:38:21;15.93;;;9.33;;
2944;SDS011;1482;51.398;7.128;2022-09-30T01:43:37;14.60;;;9.60;;
2944;SDS011;1482;51.398;7.128;2022-09-30T01:49:29;9.23;;;8.27;;
2944;SDS011;1482;51.398;7.128;2022-09-30T01:52:15;14.93;;;8.33;;
2944;SDS011;1482;51.398;7.128;2022-09-30T01:59:53;13.47;;;7.50;;
2944;SDS011;1482;51.398;7.128;2022-09-30T02:05:04;11.73;;;7.83;;
2944;SDS011;1482;51.398;7.128;2022-09-30T02:07:37;10.47;;;8.37;;
2944;SDS011;1482;51.398;7.128;2022-09-30T02:10:11;12.93;;;8.73;;
2944;SDS011;1482;51.398;7.128;2022-09-30T02:12:43;9.33;;;8.30;;
2944;SDS011;1482;51.398;7.128;2022-09-30T02:15:14;11.83;;;9.90;;
2944;SDS011;1482;51.398;7.128;2022-09-30T02:18:29;11.63;;;8.37;;
2944;SDS011;1482;51.398;7.128;2022-09-30T02:20:41;11.03;;;8.80;;
2944;SDS011;1482;51.398;7.128;2022-09-30T02:23:10;13.50;;;10.23;;
2944;SDS011;1482;51.398;7.128;2022-09-30T02:25:51;11.33;;;10.10;;
2944;SDS011;1482;51.398;7.128;2022-09-30T02:28:23;12.33;;;9.43;;
2944;SDS011;1482;51.398;7.128;2022-09-30T02:30:53;11.83;;;10.17;;
2944;SDS011;1482;51.398;7.128;2022-09-30T02:33:22;12.00;;;8.63;;
2944;SDS011;1482;51.398;7.128;2022-09-30T02:36:04;9.40;;;8.40;;
2944;SDS011;1482;51.398;7.128;2022-09-30T02:39:02;13.50;;;9.07;;
2944;SDS011;1482;51.398;7.128;2022-09-30T02:41:37;10.23;;;8.60;;
2944;SDS011;1482;51.398;7.128;2022-09-30T02:44:08;15.13;;;8.80;;
2944;SDS011;1482;51.398;7.128;2022-09-30T02:46:40;12.80;;;8.70;;
2944;SDS011;1482;51.398;7.128;2022-09-30T02:54:44;12.77;;;9.27;;
2944;SDS011;1482;51.398;7.128;2022-09-30T02:59:42;11.10;;;9.80;;
2944;SDS011;1482;51.398;7.128;2022-09-30T03:02:16;14.97;;;12.70;;
2944;SDS011;1482;51.398;7.128;2022-09-30T03:04:42;13.53;;;11.17;;
2944;SDS011;1482;51.398;7.128;2022-09-30T03:07:10;18.20;;;11.83;;
2944;SDS011;1482;51.398;7.128;2022-09-30T03:09:36;17.30;;;12.97;;
2944;SDS011;1482;51.398;7.128;2022-09-30T03:12:15;18.07;;;12.93;;
2944;SDS011;1482;51.398;7.128;2022-09-30T03:15:10;15.20;;;11.10;;
2944;SDS011;1482;51.398;7.128;2022-09-30T03:31:31;14.13;;;10.53;;
2944;SDS011;1482;51.398;7.128;2022-09-30T03:34:16;11.20;;;9.40;;
2944;SDS011;1482;51.398;7.128;2022-09-30T03:42:26;13.03;;;10.23;;
2944;SDS011;1482;51.398;7.128;2022-09-30T03:45:16;16.57;;;10.47;;
2944;SDS011;1482;51.398;7.128;2022-09-30T03:47:56;13.73;;;11.13;;
2944;SDS011;1482;51.398;7.128;2022-09-30T03:50:25;12.17;;;9.90;;
2944;SDS011;1482;51.398;7.128;2022-09-30T03:52:53;13.17;;;9.60;;
2944;SDS011;1482;51.398;7.128;2022-09-30T03:55:19;12.07;;;9.93;;
2944;SDS011;1482;51.398;7.128;2022-09-30T03:57:47;11.80;;;10.30;;
2944;SDS011;1482;51.398;7.128;2022-09-30T04:00:13;26.33;;;11.07;;
2944;SDS011;1482;51.398;7.128;2022-09-30T04:02:39;12.73;;;9.50;;
2944;SDS011;1482;51.398;7.128;2022-09-30T04:05:05;11.60;;;9.73;;
2944;SDS011;1482;51.398;7.128;2022-09-30T04:07:32;13.70;;;9.77;;
2944;SDS011;1482;51.398;7.128;2022-09-30T04:09:58;11.47;;;8.97;;
2944;SDS011;1482;51.398;7.128;2022-09-30T04:12:24;12.50;;;9.87;;
2944;SDS011;1482;51.398;7.128;2022-09-30T04:14:50;13.43;;;9.37;;
2944;SDS011;1482;51.398;7.128;2022-09-30T04:17:16;19.50;;;9.30;;
2944;SDS011;1482;51.398;7.128;2022-09-30T04:19:41;14.20;;;11.37;;
2944;SDS011;1482;51.398;7.128;2022-09-30T04:22:08;13.17;;;11.33;;
2944;SDS011;1482;51.398;7.128;2022-09-30T04:24:34;11.87;;;9.83;;
2944;SDS011;1482;51.398;7.128;2022-09-30T04:27:00;13.07;;;9.83;;
2944;SDS011;1482;51.398;7.128;2022-09-30T04:29:26;11.20;;;9.50;;
2944;SDS011;1482;51.398;7.128;2022-09-30T04:31:52;17.93;;;10.77;;
2944;SDS011;1482;51.398;7.128;2022-09-30T04:34:17;15.77;;;10.60;;
2944;SDS011;1482;51.398;7.128;2022-09-30T04:36:43;14.93;;;11.60;;
2944;SDS011;1482;51.398;7.128;2022-09-30T04:39:09;15.90;;;11.87;;
2944;SDS011;1482;51.398;7.128;2022-09-30T04:41:34;14.70;;;10.90;;
2944;SDS011;1482;51.398;7.128;2022-09-30T04:44:00;21.13;;;11.47;;
2944;SDS011;1482;51.398;7.128;2022-09-30T04:46:30;12.63;;;10.53;;
2944;SDS011;1482;51.398;7.128;2022-09-30T04:48:56;12.07;;;10.60;;
2944;SDS011;1482;51.398;7.128;2022-09-30T04:51:22;12.43;;;10.67;;
2944;SDS011;1482;51.398;7.128;2022-09-30T04:53:48;14.63;;;11.77;;
2944;SDS011;1482;51.398;7.128;2022-09-30T04:56:14;12.53;;;11.23;;
2944;SDS011;1482;51.398;7.128;2022-09-30T04:58:43;17.27;;;12.43;;
2944;SDS011;1482;51.398;7.128;2022-09-30T05:01:12;15.17;;;11.40;;
2944;SDS011;1482;51.398;7.128;2022-09-30T05:03:39;17.73;;;12.80;;
2944;SDS011;1482;51.398;7.128;2022-09-30T05:06:07;16.13;;;10.93;;
2944;SDS011;1482;51.398;7.128;2022-09-30T05:08:33;19.70;;;12.17;;
2944;SDS011;1482;51.398;7.128;2022-09-30T05:11:00;11.23;;;10.03;;
2944;SDS011;1482;51.398;7.128;2022-09-30T05:13:31;12.63;;;11.33;;
2944;SDS011;1482;51.398;7.128;2022-09-30T05:15:58;14.80;;;13.03;;
2944;SDS011;1482;51.398;7.128;2022-09-30T05:18:23;13.70;;;10.37;;
2944;SDS011;1482;51.398;7.128;2022-09-30T05:20:51;12.70;;;11.43;;
2944;SDS011;1482;51.398;7.128;2022-09-30T05:23:17;12.47;;;10.20;;
2944;SDS011;1482;51.398;7.128;2022-09-30T05:25:44;11.17;;;10.00;;
2944;SDS011;1482;51.398;7.128;2022-09-30T05:28:10;11.63;;;10.47;;
2944;SDS011;1482;51.398;7.128;2022-09-30T05:30:36;10.53;;;9.50;;
2944;SDS011;1482;51.398;7.128;2022-09-30T05:33:02;15.33;;;11.57;;
2944;SDS011;1482;51.398;7.128;2022-09-30T05:35:28;20.63;;;11.90;;
2944;SDS011;1482;51.398;7.128;2022-09-30T05:37:54;18.30;;;11.93;;
2944;SDS011;1482;51.398;7.128;2022-09-30T05:40:19;22.43;;;11.73;;
2944;SDS011;1482;51.398;7.128;2022-09-30T05:42:45;13.27;;;11.87;;
2944;SDS011;1482;51.398;7.128;2022-09-30T05:45:11;13.30;;;11.17;;
2944;SDS011;1482;51.398;7.128;2022-09-30T05:47:37;14.13;;;11.37;;
2944;SDS011;1482;51.398;7.128;2022-09-30T05:50:03;12.33;;;11.03;;
2944;SDS011;1482;51.398;7.128;2022-09-30T05:52:29;14.60;;;11.50;;
2944;SDS011;1482;51.398;7.128;2022-09-30T05:54:55;12.70;;;11.20;;
2944;SDS011;1482;51.398;7.128;2022-09-30T05:57:24;14.83;;;12.70;;
2944;SDS011;1482;51.398;7.128;2022-09-30T05:59:53;14.97;;;12.17;;
2944;SDS011;1482;51.398;7.128;2022-09-30T06:02:21;14.03;;;10.80;;
2944;SDS011;1482;51.398;7.128;2022-09-30T06:04:47;13.70;;;10.93;;
2944;SDS011;1482;51.398;7.128;2022-09-30T06:07:14;13.23;;;11.73;;
2944;SDS011;1482;51.398;7.128;2022-09-30T06:09:40;12.07;;;10.90;;
2944;SDS011;1482;51.398;7.128;2022-09-30T06:12:06;16.80;;;10.67;;
2944;SDS011;1482;51.398;7.128;2022-09-30T06:14:32;13.20;;;10.70;;
2944;SDS011;1482;51.398;7.128;2022-09-30T06:16:58;15.40;;;11.83;;
2944;SDS011;1482;51.398;7.128;2022-09-30T06:19:26;11.50;;;10.30;;
2944;SDS011;1482;51.398;7.128;2022-09-30T06:21:54;15.00;;;11.43;;
2944;SDS011;1482;51.398;7.128;2022-09-30T06:24:20;12.60;;;10.57;;
2944;SDS011;1482;51.398;7.128;2022-09-30T06:26:45;9.07;;;8.17;;
2944;SDS011;1482;51.398;7.128;2022-09-30T06:29:11;11.97;;;8.43;;
2944;SDS011;1482;51.398;7.128;2022-09-30T06:31:37;12.97;;;8.03;;
2944;SDS011;1482;51.398;7.128;2022-09-30T06:34:03;8.20;;;7.20;;
2944;SDS011;1482;51.398;7.128;2022-09-30T06:36:29;10.10;;;8.13;;
2944;SDS011;1482;51.398;7.128;2022-09-30T06:38:57;10.63;;;7.77;;
2944;SDS011;1482;51.398;7.128;2022-09-30T06:41:26;11.50;;;8.20;;
2944;SDS011;1482;51.398;7.128;2022-09-30T06:43:53;11.80;;;8.23;;
2944;SDS011;1482;51.398;7.128;2022-09-30T06:46:19;10.93;;;9.67;;
2944;SDS011;1482;51.398;7.128;2022-09-30T06:48:48;9.80;;;8.90;;
2944;SDS011;1482;51.398;7.128;2022-09-30T06:51:17;11.20;;;9.97;;
2944;SDS011;1482;51.398;7.128;2022-09-30T06:53:42;8.53;;;7.30;;
2944;SDS011;1482;51.398;7.128;2022-09-30T06:56:08;9.90;;;8.93;;
2944;SDS011;1482;51.398;7.128;2022-09-30T06:58:33;11.97;;;10.97;;
2944;SDS011;1482;51.398;7.128;2022-09-30T07:01:00;12.53;;;11.63;;
2944;SDS011;1482;51.398;7.128;2022-09-30T07:03:29;10.20;;;9.40;;
2944;SDS011;1482;51.398;7.128;2022-09-30T07:05:57;12.60;;;11.70;;
2944;SDS011;1482;51.398;7.128;2022-09-30T07:08:24;15.57;;;12.73;;
2944;SDS011;1482;51.398;7.128;2022-09-30T07:10:52;12.87;;;11.90;;
2944;SDS011;1482;51.398;7.128;2022-09-30T07:13:18;13.60;;;12.67;;
2944;SDS011;1482;51.398;7.128;2022-09-30T07:15:44;10.93;;;9.97;;
2944;SDS011;1482;51.398;7.128;2022-09-30T07:18:09;9.70;;;8.90;;
2944;SDS011;1482;51.398;7.128;2022-09-30T07:20:35;11.57;;;10.73;;
2944;SDS011;1482;51.398;7.128;2022-09-30T07:23:00;14.97;;;13.77;;
2944;SDS011;1482;51.398;7.128;2022-09-30T07:25:26;13.93;;;12.57;;
2944;SDS011;1482;51.398;7.128;2022-09-30T07:27:51;14.30;;;13.00;;
2944;SDS011;1482;51.398;7.128;2022-09-30T07:30:19;14.53;;;12.93;;
2944;SDS011;1482;51.398;7.128;2022-09-30T07:32:44;15.23;;;11.07;;
2944;SDS011;1482;51.398;7.128;2022-09-30T07:35:10;11.70;;;10.83;;
2944;SDS011;1482;51.398;7.128;2022-09-30T07:37:36;11.97;;;10.80;;
2944;SDS011;1482;51.398;7.128;2022-09-30T07:40:05;12.13;;;11.13;;
2944;SDS011;1482;51.398;7.128;2022-09-30T07:42:32;11.10;;;10.30;;
2944;SDS011;1482;51.398;7.128;2022-09-30T07:45:01;10.67;;;9.87;;
2944;SDS011;1482;51.398;7.128;2022-09-30T07:47:26;13.47;;;12.20;;
2944;SDS011;1482;51.398;7.128;2022-09-30T07:49:52;12.00;;;10.20;;
2944;SDS011;1482;51.398;7.128;2022-09-30T07:52:17;10.30;;;9.30;;
2944;SDS011;1482;51.398;7.128;2022-09-30T07:54:43;10.00;;;9.13;;
2944;SDS011;1482;51.398;7.128;2022-09-30T07:57:08;11.67;;;8.93;;
2944;SDS011;1482;51.398;7.128;2022-09-30T07:59:36;10.20;;;8.77;;
2944;SDS011;1482;51.398;7.128;2022-09-30T08:02:03;9.17;;;8.27;;
2944;SDS011;1482;51.398;7.128;2022-09-30T08:04:31;9.70;;;8.70;;
2944;SDS011;1482;51.398;7.128;2022-09-30T08:06:57;11.23;;;9.20;;
2944;SDS011;1482;51.398;7.128;2022-09-30T08:09:25;9.00;;;8.30;;
2944;SDS011;1482;51.398;7.128;2022-09-30T08:11:52;10.67;;;9.67;;
2944;SDS011;1482;51.398;7.128;2022-09-30T08:14:20;10.57;;;8.77;;
2944;SDS011;1482;51.398;7.128;2022-09-30T08:16:48;11.50;;;8.50;;
2944;SDS011;1482;51.398;7.128;2022-09-30T08:19:17;8.80;;;8.10;;
2944;SDS011;1482;51.398;7.128;2022-09-30T08:21:47;11.77;;;8.90;;
2944;SDS011;1482;51.398;7.128;2022-09-30T08:24:14;10.27;;;9.37;;
2944;SDS011;1482;51.398;7.128;2022-09-30T08:26:40;9.83;;;8.93;;
2944;SDS011;1482;51.398;7.128;2022-09-30T08:29:07;10.63;;;9.63;;
2944;SDS011;1482;51.398;7.128;2022-09-30T08:31:35;9.20;;;8.40;;
2944;SDS011;1482;51.398;7.128;2022-09-30T08:34:01;11.67;;;10.57;;
2944;SDS011;1482;51.398;7.128;2022-09-30T08:36:27;9.40;;;8.60;;
2944;SDS011;1482;51.398;7.128;2022-09-30T08:38:53;9.93;;;9.00;;
2944;SDS011;1482;51.398;7.128;2022-09-30T08:41:26;14.13;;;9.60;;
2944;SDS011;1482;51.398;7.128;2022-09-30T08:52:09;12.47;;;11.27;;
2944;SDS011;1482;51.398;7.128;2022-09-30T08:54:38;11.53;;;10.50;;
2944;SDS011;1482;51.398;7.128;2022-09-30T08:57:09;12.03;;;11.03;;
2944;SDS011;1482;51.398;7.128;2022-09-30T08:59:37;12.57;;;11.47;;
2944;SDS011;1482;51.398;7.128;2022-09-30T09:02:16;11.47;;;10.57;;
2944;SDS011;1482;51.398;7.128;2022-09-30T09:04:47;11.67;;;10.67;;
2944;SDS011;1482;51.398;7.128;2022-09-30T09:24:13;11.10;;;10.10;;
2944;SDS011;1482;51.398;7.128;2022-09-30T09:26:41;10.63;;;9.63;;
2944;SDS011;1482;51.398;7.128;2022-09-30T09:31:55;10.00;;;9.20;;
2944;SDS011;1482;51.398;7.128;2022-09-30T09:34:23;10.43;;;9.53;;
2944;SDS011;1482;51.398;7.128;2022-09-30T09:44:58;10.37;;;9.37;;
2944;SDS011;1482;51.398;7.128;2022-09-30T09:47:27;11.07;;;9.67;;
2944;SDS011;1482;51.398;7.128;2022-09-30T09:50:00;14.80;;;9.30;;
2944;SDS011;1482;51.398;7.128;2022-09-30T09:54:59;11.20;;;9.30;;
2944;SDS011;1482;51.398;7.128;2022-09-30T09:57:27;14.40;;;8.43;;
2944;SDS011;1482;51.398;7.128;2022-09-30T10:00:00;8.43;;;7.70;;
2944;SDS011;1482;51.398;7.128;2022-09-30T10:02:59;9.80;;;8.97;;
2944;SDS011;1482;51.398;7.128;2022-09-30T10:05:28;12.30;;;7.70;;
2944;SDS011;1482;51.398;7.128;2022-09-30T10:10:40;14.60;;;8.07;;
2944;SDS011;1482;51.398;7.128;2022-09-30T10:13:14;8.70;;;6.77;;
2944;SDS011;1482;51.398;7.128;2022-09-30T10:15:44;9.17;;;8.27;;
2944;SDS011;1482;51.398;7.128;2022-09-30T10:18:24;9.20;;;8.13;;
2944;SDS011;1482;51.398;7.128;2022-09-30T10:20:57;10.80;;;9.40;;
2944;SDS011;1482;51.398;7.128;2022-09-30T10:25:57;9.60;;;8.77;;
2944;SDS011;1482;51.398;7.128;2022-09-30T10:31:24;9.50;;;8.50;;
2944;SDS011;1482;51.398;7.128;2022-09-30T10:36:33;10.50;;;7.97;;
2944;SDS011;1482;51.398;7.128;2022-09-30T10:39:02;12.67;;;7.97;;
2944;SDS011;1482;51.398;7.128;2022-09-30T10:41:33;10.87;;;9.70;;
2944;SDS011;1482;51.398;7.128;2022-09-30T10:44:04;8.37;;;7.57;;
2944;SDS011;1482;51.398;7.128;2022-09-30T10:46:38;8.73;;;7.80;;
2944;SDS011;1482;51.398;7.128;2022-09-30T10:49:10;8.43;;;7.63;;
2944;SDS011;1482;51.398;7.128;2022-09-30T10:51:45;7.73;;;6.93;;
2944;SDS011;1482;51.398;7.128;2022-09-30T10:54:27;8.80;;;7.47;;
2944;SDS011;1482;51.398;7.128;2022-09-30T10:57:00;11.63;;;8.23;;
2944;SDS011;1482;51.398;7.128;2022-09-30T10:59:33;9.47;;;7.30;;
2944;SDS011;1482;51.398;7.128;2022-09-30T11:02:04;6.70;;;5.77;;
2944;SDS011;1482;51.398;7.128;2022-09-30T11:04:43;8.13;;;7.17;;
2944;SDS011;1482;51.398;7.128;2022-09-30T11:07:30;7.53;;;6.83;;
2944;SDS011;1482;51.398;7.128;2022-09-30T11:10:05;6.40;;;5.80;;
2944;SDS011;1482;51.398;7.128;2022-09-30T11:15:55;7.60;;;6.80;;
2944;SDS011;1482;51.398;7.128;2022-09-30T11:18:34;11.03;;;5.97;;
2944;SDS011;1482;51.398;7.128;2022-09-30T11:21:22;9.93;;;5.80;;
2944;SDS011;1482;51.398;7.128;2022-09-30T11:24:01;9.43;;;6.07;;
2944;SDS011;1482;51.398;7.128;2022-09-30T11:29:31;8.40;;;6.40;;
2944;SDS011;1482;51.398;7.128;2022-09-30T11:32:35;7.30;;;5.70;;
2944;SDS011;1482;51.398;7.128;2022-09-30T11:35:20;7.80;;;6.30;;
2944;SDS011;1482;51.398;7.128;2022-09-30T11:37:55;6.80;;;5.37;;
2944;SDS011;1482;51.398;7.128;2022-09-30T11:51:27;7.43;;;5.50;;
2944;SDS011;1482;51.398;7.128;2022-09-30T11:56:55;5.73;;;4.93;;
2944;SDS011;1482;51.398;7.128;2022-09-30T11:59:29;5.20;;;4.27;;
2944;SDS011;1482;51.398;7.128;2022-09-30T12:02:00;5.23;;;4.83;;
2944;SDS011;1482;51.398;7.128;2022-09-30T12:07:08;8.60;;;5.57;;
2944;SDS011;1482;51.398;7.128;2022-09-30T12:09:47;6.70;;;5.03;;
2944;SDS011;1482;51.398;7.128;2022-09-30T12:12:19;7.97;;;5.03;;
2944;SDS011;1482;51.398;7.128;2022-09-30T12:14:46;5.63;;;5.10;;
2944;SDS011;1482;51.398;7.128;2022-09-30T12:17:20;6.37;;;4.70;;
2944;SDS011;1482;51.398;7.128;2022-09-30T12:25:50;5.07;;;4.50;;
2944;SDS011;1482;51.398;7.128;2022-09-30T12:28:41;4.83;;;4.30;;
2944;SDS011;1482;51.398;7.128;2022-09-30T12:31:49;7.23;;;4.37;;
2944;SDS011;1482;51.398;7.128;2022-09-30T12:48:23;10.33;;;6.00;;
2944;SDS011;1482;51.398;7.128;2022-09-30T12:51:00;7.67;;;5.60;;
2944;SDS011;1482;51.398;7.128;2022-09-30T12:53:30;5.03;;;4.53;;
2944;SDS011;1482;51.398;7.128;2022-09-30T12:56:05;11.60;;;5.53;;
2944;SDS011;1482;51.398;7.128;2022-09-30T12:58:40;4.93;;;4.53;;
2944;SDS011;1482;51.398;7.128;2022-09-30T13:03:49;6.60;;;5.70;;
2944;SDS011;1482;51.398;7.128;2022-09-30T13:06:18;7.33;;;4.80;;
2944;SDS011;1482;51.398;7.128;2022-09-30T13:14:17;6.67;;;5.97;;
2944;SDS011;1482;51.398;7.128;2022-09-30T13:19:38;5.43;;;4.93;;
2944;SDS011;1482;51.398;7.128;2022-09-30T13:25:09;8.37;;;5.43;;
2944;SDS011;1482;51.398;7.128;2022-09-30T13:27:43;7.57;;;5.77;;
2944;SDS011;1482;51.398;7.128;2022-09-30T13:40:53;6.83;;;4.83;;
2944;SDS011;1482;51.398;7.128;2022-09-30T13:45:56;6.20;;;5.57;;
2944;SDS011;1482;51.398;7.128;2022-09-30T13:48:29;13.83;;;5.20;;
2944;SDS011;1482;51.398;7.128;2022-09-30T13:50:58;5.83;;;4.97;;
2944;SDS011;1482;51.398;7.128;2022-09-30T13:53:36;6.97;;;5.07;;
2944;SDS011;1482;51.398;7.128;2022-09-30T13:56:06;6.43;;;5.10;;
2944;SDS011;1482;51.398;7.128;2022-09-30T14:07:13;5.97;;;4.40;;
2944;SDS011;1482;51.398;7.128;2022-09-30T14:12:33;5.83;;;4.40;;
2944;SDS011;1482;51.398;7.128;2022-09-30T14:22:55;5.90;;;4.53;;
2944;SDS011;1482;51.398;7.128;2022-09-30T14:25:21;5.93;;;3.23;;
2944;SDS011;1482;51.398;7.128;2022-09-30T14:30:24;6.53;;;4.07;;
2944;SDS011;1482;51.398;7.128;2022-09-30T14:35:26;4.80;;;3.47;;
2944;SDS011;1482;51.398;7.128;2022-09-30T14:37:58;3.40;;;3.10;;
2944;SDS011;1482;51.398;7.128;2022-09-30T14:40:32;4.93;;;3.10;;
2944;SDS011;1482;51.398;7.128;2022-09-30T14:43:04;5.53;;;3.00;;
2944;SDS011;1482;51.398;7.128;2022-09-30T14:45:36;6.77;;;3.67;;
2944;SDS011;1482;51.398;7.128;2022-09-30T14:48:07;6.40;;;2.87;;
2944;SDS011;1482;51.398;7.128;2022-09-30T14:50:36;3.80;;;3.40;;
2944;SDS011;1482;51.398;7.128;2022-09-30T14:53:24;3.43;;;3.07;;
2944;SDS011;1482;51.398;7.128;2022-09-30T14:55:51;3.20;;;2.33;;
2944;SDS011;1482;51.398;7.128;2022-09-30T14:58:19;2.90;;;2.27;;
2944;SDS011;1482;51.398;7.128;2022-09-30T15:00:55;3.17;;;2.90;;
2944;SDS011;1482;51.398;7.128;2022-09-30T15:03:32;2.47;;;2.27;;
2944;SDS011;1482;51.398;7.128;2022-09-30T15:06:00;2.40;;;2.20;;
2944;SDS011;1482;51.398;7.128;2022-09-30T15:08:26;4.93;;;2.47;;
2944;SDS011;1482;51.398;7.128;2022-09-30T15:10:53;5.20;;;2.83;;
2944;SDS011;1482;51.398;7.128;2022-09-30T15:13:20;3.87;;;2.80;;
2944;SDS011;1482;51.398;7.128;2022-09-30T15:15:48;6.53;;;3.40;;
2944;SDS011;1482;51.398;7.128;2022-09-30T15:20:56;2.80;;;2.37;;
2944;SDS011;1482;51.398;7.128;2022-09-30T15:23:28;2.70;;;2.30;;
2944;SDS011;1482;51.398;7.128;2022-09-30T15:25:56;5.47;;;2.33;;
2944;SDS011;1482;51.398;7.128;2022-09-30T15:28:22;2.70;;;2.10;;
2944;SDS011;1482;51.398;7.128;2022-09-30T15:30:49;3.87;;;2.47;;
2944;SDS011;1482;51.398;7.128;2022-09-30T15:33:18;4.87;;;2.50;;
2944;SDS011;1482;51.398;7.128;2022-09-30T15:35:47;3.37;;;2.40;;
2944;SDS011;1482;51.398;7.128;2022-09-30T15:38:22;2.70;;;2.23;;
2944;SDS011;1482;51.398;7.128;2022-09-30T15:40:52;3.20;;;2.40;;
2944;SDS011;1482;51.398;7.128;2022-09-30T15:43:29;2.77;;;2.53;;
2944;SDS011;1482;51.398;7.128;2022-09-30T15:48:40;2.47;;;2.27;;
2944;SDS011;1482;51.398;7.128;2022-09-30T15:53:49;3.73;;;3.07;;
2944;SDS011;1482;51.398;7.128;2022-09-30T15:56:16;5.23;;;3.70;;
2944;SDS011;1482;51.398;7.128;2022-09-30T16:01:21;4.50;;;2.63;;
2944;SDS011;1482;51.398;7.128;2022-09-30T16:03:52;7.03;;;3.23;;
2944;SDS011;1482;51.398;7.128;2022-09-30T16:07:05;3.70;;;3.13;;
2944;SDS011;1482;51.398;7.128;2022-09-30T16:11:56;4.53;;;3.33;;
2944;SDS011;1482;51.398;7.128;2022-09-30T16:17:04;7.63;;;3.20;;
2944;SDS011;1482;51.398;7.128;2022-09-30T16:19:31;3.37;;;3.03;;
2944;SDS011;1482;51.398;7.128;2022-09-30T16:21:58;4.70;;;3.10;;
2944;SDS011;1482;51.398;7.128;2022-09-30T16:26:54;7.17;;;3.73;;
2944;SDS011;1482;51.398;7.128;2022-09-30T16:29:21;3.57;;;3.27;;
2944;SDS011;1482;51.398;7.128;2022-09-30T16:31:49;4.57;;;3.33;;
2944;SDS011;1482;51.398;7.128;2022-09-30T16:34:21;5.37;;;4.07;;
2944;SDS011;1482;51.398;7.128;2022-09-30T16:36:49;8.93;;;3.93;;
2944;SDS011;1482;51.398;7.128;2022-09-30T16:39:16;7.57;;;3.00;;
2944;SDS011;1482;51.398;7.128;2022-09-30T16:41:43;4.90;;;4.00;;
2944;SDS011;1482;51.398;7.128;2022-09-30T16:44:09;3.60;;;3.30;;
2944;SDS011;1482;51.398;7.128;2022-09-30T16:46:35;5.60;;;4.13;;
2944;SDS011;1482;51.398;7.128;2022-09-30T16:49:10;3.43;;;3.10;;
2944;SDS011;1482;51.398;7.128;2022-09-30T16:51:39;5.20;;;3.30;;
2944;SDS011;1482;51.398;7.128;2022-09-30T16:54:04;4.60;;;3.77;;
2944;SDS011;1482;51.398;7.128;2022-09-30T16:56:30;5.40;;;3.30;;
2944;SDS011;1482;51.398;7.128;2022-09-30T16:58:56;4.17;;;2.90;;
2944;SDS011;1482;51.398;7.128;2022-09-30T17:01:22;6.23;;;3.70;;
2944;SDS011;1482;51.398;7.128;2022-09-30T17:03:49;6.63;;;4.10;;
2944;SDS011;1482;51.398;7.128;2022-09-30T17:06:19;3.93;;;3.53;;
2944;SDS011;1482;51.398;7.128;2022-09-30T17:08:50;6.10;;;5.60;;
2944;SDS011;1482;51.398;7.128;2022-09-30T17:11:17;6.33;;;4.90;;
2944;SDS011;1482;51.398;7.128;2022-09-30T17:13:43;3.87;;;3.50;;
2944;SDS011;1482;51.398;7.128;2022-09-30T17:16:10;5.67;;;3.93;;
2944;SDS011;1482;51.398;7.128;2022-09-30T17:18:36;4.90;;;4.40;;
2944;SDS011;1482;51.398;7.128;2022-09-30T17:21:01;5.90;;;4.17;;
2944;SDS011;1482;51.398;7.128;2022-09-30T17:23:27;6.03;;;3.97;;
2944;SDS011;1482;51.398;7.128;2022-09-30T17:25:53;5.77;;;5.00;;
2944;SDS011;1482;51.398;7.128;2022-09-30T17:28:18;6.30;;;5.00;;
2944;SDS011;1482;51.398;7.128;2022-09-30T17:30:44;4.47;;;4.07;;
2944;SDS011;1482;51.398;7.128;2022-09-30T17:33:12;5.10;;;4.43;;
2944;SDS011;1482;51.398;7.128;2022-09-30T17:35:38;5.57;;;5.13;;
2944;SDS011;1482;51.398;7.128;2022-09-30T17:38:07;5.70;;;5.20;;
2944;SDS011;1482;51.398;7.128;2022-09-30T17:40:35;5.00;;;4.50;;
2944;SDS011;1482;51.398;7.128;2022-09-30T17:43:19;5.30;;;4.53;;
2944;SDS011;1482;51.398;7.128;2022-09-30T17:45:45;7.60;;;4.80;;
2944;SDS011;1482;51.398;7.128;2022-09-30T17:48:12;5.43;;;4.93;;
2944;SDS011;1482;51.398;7.128;2022-09-30T17:50:40;10.80;;;5.37;;
2944;SDS011;1482;51.398;7.128;2022-09-30T17:53:08;8.23;;;5.30;;
2944;SDS011;1482;51.398;7.128;2022-09-30T17:55:37;6.17;;;4.00;;
2944;SDS011;1482;51.398;7.128;2022-09-30T17:58:03;5.93;;;4.30;;
2944;SDS011;1482;51.398;7.128;2022-09-30T18:00:30;5.90;;;4.10;;
2944;SDS011;1482;51.398;7.128;2022-09-30T18:02:56;4.83;;;3.40;;
2944;SDS011;1482;51.398;7.128;2022-09-30T18:05:22;4.40;;;4.00;;
2944;SDS011;1482;51.398;7.128;2022-09-30T18:07:49;4.37;;;4.00;;
2944;SDS011;1482;51.398;7.128;2022-09-30T18:10:15;3.90;;;3.60;;
2944;SDS011;1482;51.398;7.128;2022-09-30T18:12:41;4.97;;;4.10;;
2944;SDS011;1482;51.398;7.128;2022-09-30T18:15:06;6.93;;;3.53;;
2944;SDS011;1482;51.398;7.128;2022-09-30T18:17:33;7.23;;;3.87;;
2944;SDS011;1482;51.398;7.128;2022-09-30T18:19:59;4.10;;;3.80;;
2944;SDS011;1482;51.398;7.128;2022-09-30T18:22:25;4.00;;;3.70;;
2944;SDS011;1482;51.398;7.128;2022-09-30T18:24:50;7.40;;;4.00;;
2944;SDS011;1482;51.398;7.128;2022-09-30T18:27:35;6.07;;;4.30;;
2944;SDS011;1482;51.398;7.128;2022-09-30T18:30:00;8.90;;;4.20;;
2944;SDS011;1482;51.398;7.128;2022-09-30T18:32:28;5.60;;;4.17;;
2944;SDS011;1482;51.398;7.128;2022-09-30T18:34:54;5.57;;;4.00;;
2944;SDS011;1482;51.398;7.128;2022-09-30T18:37:21;4.20;;;3.80;;
2944;SDS011;1482;51.398;7.128;2022-09-30T18:39:50;7.50;;;4.33;;
2944;SDS011;1482;51.398;7.128;2022-09-30T18:42:15;5.40;;;4.90;;
2944;SDS011;1482;51.398;7.128;2022-09-30T18:44:45;4.83;;;4.40;;
2944;SDS011;1482;51.398;7.128;2022-09-30T18:47:11;7.27;;;4.77;;
2944;SDS011;1482;51.398;7.128;2022-09-30T18:49:37;7.03;;;5.07;;
2944;SDS011;1482;51.398;7.128;2022-09-30T18:52:03;5.33;;;4.70;;
2944;SDS011;1482;51.398;7.128;2022-09-30T18:54:29;5.00;;;4.43;;
2944;SDS011;1482;51.398;7.128;2022-09-30T18:56:54;5.63;;;4.67;;
2944;SDS011;1482;51.398;7.128;2022-09-30T18:59:20;9.73;;;4.97;;
2944;SDS011;1482;51.398;7.128;2022-09-30T19:01:46;7.07;;;4.03;;
2944;SDS011;1482;51.398;7.128;2022-09-30T19:04:11;6.77;;;5.30;;
2944;SDS011;1482;51.398;7.128;2022-09-30T19:06:38;4.40;;;4.10;;